MKJS/MBJ METAR and TAF weather

Enter ICAO airport designator
Station Type Date Time Source
MKJS METAR 2019/08/24 07:00 UTC NOAA

MKJS 240700Z 29003KT 9999 FEW022 26/24 Q1013


Station Type Date Time Source
MKJS Decoded METAR 2019/08/24 07:00 UTC NOAA

Station name not available
Aug 24, 2019 - 03:00 AM EDT / 2019.08.24 0700 UTC
Wind: from the WNW (290 degrees) at 3 MPH (3 KT):0
Visibility: greater than 7 mile(s):0
Sky conditions: mostly clear
Temperature: 78 F (26 C)
Dew Point: 75 F (24 C)
Relative Humidity: 88%
Pressure (altimeter): 29.91 in. Hg (1013 hPa)
ob: MKJS 240700Z 29003KT 9999 FEW022 26/24 Q1013
cycle: 7

Station Type Date Time Source
MKJS TAF 2019/08/24 06:15 UTC NOAA

TAF MKJS 240515Z 2406/2506 15003KT 9999 FEW022
BECMG 2413/2415 08013KT
TEMPO 2419/2501 TSRA BKN020CB
BECMG 2500/2502 15003KT

Example: see airport list